Flight Track Log - Related Links

Times and Time Zones

All times are in EDT time to prevent confusion due to time zone crossing. See the GJS3707 flight status page for this flight to view local times or setup timezone preferences in your user account.


Time Position Orientation Groundspeed Altitude Reporting Facility
EDT Latitude Longitude Course Direction KTS MPH feet Rate Location/Type
Wed 04:31:32 PM 43.5872 -116.2964 328° Northwest 199 229 5,000  Level Salt Lake Center
Wed 04:32:34 PM 43.6372 -116.3400 328° Northwest 236 272 8,100 2,390 Climbing Salt Lake Center
Wed 04:33:35 PM 43.6736 -116.2681 55° Northeast 276 318 9,900 2,146 Climbing Salt Lake Center
Wed 04:34:37 PM 43.6864 -116.1444 82° East 291 335 12,500 1,854 Climbing Salt Lake Center
Wed 04:35:38 PM 43.7006 -116.0264 81° East 318 366 13,700 1,805 Climbing Salt Lake Center
Wed 04:36:40 PM 43.7194 -115.8706 80° East 363 418 16,200 2,146 Climbing Salt Lake Center
Wed 04:37:41 PM 43.7353 -115.7367 81° East 369 425 18,100 1,756 Climbing Salt Lake Center
Wed 04:38:43 PM 43.7542 -115.5769 81° East 378 435 19,800 1,463 Climbing Salt Lake Center
Wed 04:39:44 PM 43.7706 -115.4325 81° East 395 455 21,100 1,220 Climbing Salt Lake Center
Wed 04:40:46 PM 43.7878 -115.2833 81° East 408 470 22,300 1,317 Climbing Salt Lake Center
Wed 04:41:47 PM 43.8083 -115.1044 81° East 422 486 23,800 1,317 Climbing Salt Lake Center
Wed 04:42:49 PM 43.8236 -114.9497 82° East 424 488 25,000 1,122 Climbing Salt Lake Center
Wed 04:43:50 PM 43.8447 -114.7647 81° East 434 499 26,100 1,073 Climbing Salt Lake Center
Wed 04:44:52 PM 43.8619 -114.6017 82° East 448 516 27,200 968 Climbing Salt Lake Center
Wed 04:45:54 PM 43.8822 -114.4086 82° East 456 525 28,100 878 Climbing Salt Lake Center
Wed 04:46:55 PM 43.9003 -114.2403 81° East 462 532 29,000 1,024 Climbing Salt Lake Center
Wed 04:47:57 PM 43.9178 -114.0742 82° East 455 524 30,200 1,171 Climbing Salt Lake Center
Wed 04:48:58 PM 43.9353 -113.8944 82° East 453 521 31,400 976 Climbing Salt Lake Center
Wed 04:50:00 PM 43.9544 -113.6983 82° East 460 529 32,200 732 Climbing Salt Lake Center
Wed 04:51:01 PM 43.9714 -113.5278 82° East 468 539 32,900 829 Climbing Salt Lake Center
Wed 04:52:03 PM 43.9875 -113.3292 83° East 464 534 33,900 774 Climbing Salt Lake Center
Wed 04:53:05 PM 44.0042 -113.1592 82° East 465 535 34,500 537 Climbing Salt Lake Center
Wed 04:54:06 PM 44.0183 -112.9883 83° East 466 536 35,000 244 Climbing Salt Lake Center
Wed 04:55:08 PM 44.0392 -112.7819 82° East 482 555 35,000  Level Salt Lake Center
Wed 04:56:10 PM 44.0561 -112.6003 83° East 494 568 35,000  Level Salt Lake Center
Wed 04:57:11 PM 44.0728 -112.3819 84° East 507 583 35,000  Level Salt Lake Center
Wed 04:58:13 PM 44.0886 -112.1925 83° East 516 594 35,000  Level Salt Lake Center
Wed 04:59:14 PM 44.0903 -111.9756 89° East 504 580 35,000  Level Salt Lake Center
Wed 05:00:16 PM 44.0919 -111.7892 89° East 506 582 35,000  Level Salt Lake Center
Wed 05:01:18 PM 44.0936 -111.5736 89° East 502 578 35,000  Level Salt Lake Center
Wed 05:02:19 PM 44.0942 -111.3894 90° East 501 577 35,000  Level Salt Lake Center
Wed 05:03:21 PM 44.0939 -111.1767 90° East 497 572 35,000  Level Salt Lake Center
Wed 05:04:23 PM 44.0942 -110.9936 90° East 497 572 35,000  Level Salt Lake Center
Wed 05:05:24 PM 44.0933 -110.8097 90° East 499 574 35,000  Level Salt Lake Center
Wed 05:06:26 PM 44.0919 -110.5961 90° East 498 573 35,000  Level Salt Lake Center
Wed 05:07:27 PM 44.0925 -110.4125 90° East 497 572 35,000  Level Salt Lake Center
Wed 05:08:29 PM 44.0922 -110.2169 90° East 452 520 35,000 145 Level Salt Lake Center
Wed 05:09:31 PM 44.0900 -110.0469 91° East 459 528 35,300 439 Climbing Salt Lake Center
Wed 05:10:32 PM 44.0867 -109.8458 91° East 466 536 35,900 488 Climbing Salt Lake Center
Wed 05:11:34 PM 44.0844 -109.6700 91° East 471 542 36,300 488 Climbing Salt Lake Center
Wed 05:12:35 PM 44.0825 -109.4669 91° East 475 547 36,900 341 Climbing Salt Lake Center
Wed 05:13:37 PM 44.0797 -109.2933 91° East 472 543 37,000 48 Climbing Salt Lake Center
Wed 05:14:39 PM 44.0772 -109.1144 91° East 481 554 37,000  Level Salt Lake Center
Wed 05:15:40 PM 44.0731 -108.8994 91° East 497 572 37,000  Level Salt Lake Center
Wed 05:16:42 PM 44.0689 -108.7144 92° East 501 577 37,000  Level Salt Lake Center
Wed 05:17:44 PM 44.0650 -108.4972 91° East 505 581 37,000  Level Salt Lake Center
Wed 05:18:46 PM 44.0606 -108.3103 92° East 508 585 37,000  Level Salt Lake Center
Wed 05:19:47 PM 44.0547 -108.0942 92° East 504 580 37,000  Level Salt Lake Center
Wed 05:20:49 PM 44.0497 -107.9083 92° East 505 581 37,000  Level Salt Lake Center
Wed 05:21:51 PM 44.0431 -107.6936 92° East 502 578 37,000  Level Salt Lake Center
Wed 05:22:53 PM 44.0372 -107.5108 92° East 499 574 37,000  Level Salt Lake Center
Wed 05:23:55 PM 44.0306 -107.2972 92° East 498 573 37,000  Level Salt Lake Center
Wed 05:24:56 PM 44.0239 -107.1186 93° East 493 567 37,000  Level Salt Lake Center
Wed 05:25:58 PM 44.0147 -106.9094 93° East 489 563 37,000  Level Salt Lake Center
Wed 05:26:50 PM 44.0119 -106.7561 91° East 490 564 37,000  Level Denver Center
Wed 05:27:52 PM 44.0058 -106.5744 93° East 492 566 37,000  Level Denver Center
Wed 05:28:54 PM 44.0003 -106.3642 92° East 488 562 37,000  Level Denver Center
Wed 05:30:05 PM 44.0011 -106.1542 90° East 492 566 37,000  Level Salt Lake Center
Wed 05:30:58 PM 44.0033 -105.9678 89° East 495 570 37,000  Level Denver Center
Wed 05:32:00 PM 44.0047 -105.7856 89° East 494 568 37,000  Level Denver Center
Wed 05:33:02 PM 44.0042 -105.5714 90° East 495 570 37,000  Level Denver Center
Wed 05:34:04 PM 44.0042 -105.3881 90° East 496 571 37,000  Level Denver Center
Wed 05:35:06 PM 44.0044 -105.1739 90° East 496 571 37,000  Level Denver Center
Wed 05:36:08 PM 44.0031 -104.9897 91° East 497 572 37,000  Level Denver Center
Wed 05:37:10 PM 44.0025 -104.8064 90° East 496 571 37,000  Level Denver Center
Wed 05:38:12 PM 44.0011 -104.5933 90° East 493 567 37,000  Level Denver Center
Wed 05:39:14 PM 43.9994 -104.4153 91° East 485 558 37,000  Level Denver Center
Wed 05:40:16 PM 43.9964 -104.2100 91° East 477 549 37,000  Level Denver Center
Wed 05:41:18 PM 43.9950 -104.0314 91° East 481 554 37,000  Level Denver Center
Wed 05:42:20 PM 43.9917 -103.8253 91° East 481 554 37,000  Level Denver Center
Wed 05:43:22 PM 43.9894 -103.6500 91° East 475 547 37,000  Level Denver Center
Wed 05:44:24 PM 43.9847 -103.4431 92° East 479 551 37,000  Level Denver Center
Wed 05:45:26 PM 43.9817 -103.2706 91° East 471 542 37,000  Level Denver Center
Wed 05:46:28 PM 43.9797 -103.0669 91° East 470 541 37,000  Level Denver Center
Wed 05:47:30 PM 43.9731 -102.8900 93° East 476 548 37,000  Level Denver Center
Wed 05:48:32 PM 43.9678 -102.7114 92° East 472 543 37,000  Level Denver Center
Wed 05:49:34 PM 43.9603 -102.5275 93° East 475 547 37,000  Level Denver Center
Wed 05:50:36 PM 43.9547 -102.3450 92° East 476 548 37,000  Level Denver Center
Wed 05:51:38 PM 43.9464 -102.1269 93° East 473 544 37,000  Level Denver Center
Wed 05:52:40 PM 43.9397 -101.9442 93° East 475 547 37,000  Level Denver Center
Wed 05:53:42 PM 43.9336 -101.7622 93° East 474 545 37,000  Level Denver Center
Wed 05:54:45 PM 43.9289 -101.5819 92° East 474 545 37,000  Level Minneapolis Center
Wed 05:55:47 PM 43.9219 -101.3978 93° East 475 547 37,000  Level Minneapolis Center
Wed 05:56:49 PM 43.9172 -101.2178 92° East 474 545 37,000  Level Minneapolis Center
Wed 05:57:51 PM 43.9075 -100.9972 93° East 478 550 37,000  Level Minneapolis Center
Wed 05:58:53 PM 43.9000 -100.8161 93° East 476 548 37,000  Level Minneapolis Center
Wed 05:59:55 PM 43.8911 -100.6339 94° East 476 548 37,000  Level Minneapolis Center
Wed 06:00:57 PM 43.8831 -100.4503 93° East 478 550 37,000  Level Minneapolis Center
Wed 06:01:59 PM 43.8742 -100.2692 94° East 476 548 37,000  Level Minneapolis Center
Wed 06:03:01 PM 43.8642 -100.0514 94° East 475 547 37,000  Level Minneapolis Center
Wed 06:04:03 PM 43.8542 -99.8700 94° East 476 548 37,000  Level Minneapolis Center
Wed 06:05:05 PM 43.8439 -99.6894 94° East 474 545 37,000  Level Minneapolis Center
Wed 06:06:07 PM 43.8347 -99.5081 94° East 475 547 37,000  Level Minneapolis Center
Wed 06:07:09 PM 43.8236 -99.3247 95° East 478 550 37,000  Level Minneapolis Center
Wed 06:08:11 PM 43.8147 -99.1433 94° East 476 548 37,000  Level Minneapolis Center
Wed 06:09:13 PM 43.8011 -98.9236 95° East 479 551 37,000  Level Minneapolis Center
Wed 06:10:15 PM 43.7892 -98.7414 95° East 478 550 37,000  Level Minneapolis Center
Wed 06:11:17 PM 43.7800 -98.5769 94° East 480 552 37,000  Level Minneapolis Center
Wed 06:12:20 PM 43.7653 -98.3586 95° East 478 550 37,000  Level Minneapolis Center
Wed 06:13:22 PM 43.7522 -98.1769 96° East 477 549 37,000  Level Minneapolis Center
Wed 06:14:24 PM 43.7406 -97.9953 95° East 476 548 37,000  Level Minneapolis Center
Wed 06:15:26 PM 43.7286 -97.8139 95° East 475 547 37,000  Level Minneapolis Center
Wed 06:16:28 PM 43.7147 -97.6314 96° East 479 551 37,000  Level Minneapolis Center
Wed 06:17:30 PM 43.6986 -97.4142 96° East 477 549 37,000  Level Minneapolis Center
Wed 06:18:32 PM 43.6844 -97.2317 96° East 479 551 37,000  Level Minneapolis Center
Wed 06:19:34 PM 43.6708 -97.0500 96° East 478 550 37,000  Level Minneapolis Center
Wed 06:20:36 PM 43.6569 -96.8686 96° East 479 551 37,000  Level Minneapolis Center
Wed 06:21:38 PM 43.6367 -96.6889 99° East 478 550 37,000  Level Minneapolis Center
Wed 06:22:40 PM 43.6050 -96.4719 101° East 483 556 37,000  Level Minneapolis Center
Wed 06:23:43 PM 43.5781 -96.2917 102° East 484 557 37,000  Level Minneapolis Center
Wed 06:24:45 PM 43.5506 -96.1114 102° East 485 558 37,000  Level Minneapolis Center
Wed 06:25:47 PM 43.5239 -95.9319 102° East 484 557 37,000  Level Minneapolis Center
Wed 06:26:49 PM 43.4961 -95.7517 102° East 484 557 37,000  Level Minneapolis Center
Wed 06:27:51 PM 43.4625 -95.5356 102° East 484 557 37,000  Level Minneapolis Center
Wed 06:28:53 PM 43.4342 -95.3542 102° East 487 560 37,000  Level Minneapolis Center
Wed 06:29:55 PM 43.4056 -95.1744 102° East 486 559 37,000  Level Minneapolis Center
Wed 06:30:57 PM 43.3767 -94.9914 102° East 489 563 37,000  Level Minneapolis Center
Wed 06:31:59 PM 43.3475 -94.8114 103° East 488 562 37,000  Level Minneapolis Center
Wed 06:33:01 PM 43.3114 -94.5950 103° East 487 560 37,000  Level Minneapolis Center
Wed 06:34:03 PM 43.2825 -94.4128 102° East 488 562 37,000  Level Minneapolis Center
Wed 06:35:05 PM 43.2542 -94.2356 102° East 492 566 37,000 -968 Level Minneapolis Center
Wed 06:36:07 PM 43.2217 -94.0628 104° East 481 554 35,000 -960 Descending Minneapolis Center
Wed 06:37:10 PM 43.1936 -93.8961 103° East 459 528 35,000  Level Minneapolis Center
Wed 06:38:12 PM 43.1575 -93.6925 104° East 463 533 35,000  Level Minneapolis Center
Wed 06:39:14 PM 43.1264 -93.5189 104° East 474 545 35,000  Level Minneapolis Center
Wed 06:40:16 PM 43.0964 -93.3403 103° East 485 558 35,000  Level Minneapolis Center
Wed 06:41:18 PM 43.0836 -93.1578 95° East 486 559 35,000  Level Minneapolis Center
Wed 06:42:20 PM 43.0711 -92.9739 95° East 491 565 35,000 -484 Level Minneapolis Center
Wed 06:43:22 PM 43.0567 -92.7594 95° East 481 554 34,000 -939 Descending Minneapolis Center
Wed 06:44:15 PM 43.0442 -92.6194 97° East 472 543 33,200 -939 Descending Chicago Center
Wed 06:45:17 PM 43.0311 -92.4461 96° East 464 534 32,200 -968 Descending Chicago Center
Wed 06:46:19 PM 43.0192 -92.2664 95° East 474 545 31,200 -581 Descending Chicago Center
Wed 06:47:21 PM 43.0036 -92.0447 95° East 488 562 31,000 -97 Descending Chicago Center
Wed 06:48:23 PM 42.9903 -91.8619 96° East 486 559 31,000  Level Chicago Center
Wed 06:49:25 PM 42.9775 -91.6792 95° East 480 552 31,000  Level Chicago Center
Wed 06:50:27 PM 42.9628 -91.4947 96° East 482 555 31,000 -242 Level Chicago Center
Wed 06:51:29 PM 42.9478 -91.3119 96° East 482 555 30,500 -677 Descending Chicago Center
Wed 06:52:31 PM 42.9333 -91.1358 96° East 469 540 29,600 -871 Descending Chicago Center
Wed 06:53:33 PM 42.9186 -90.9597 96° East 470 541 28,700 -968 Descending Chicago Center
Wed 06:54:35 PM 42.9000 -90.7464 97° East 475 547 27,600 -968 Descending Chicago Center
Wed 06:55:37 PM 42.8831 -90.5689 97° East 477 549 26,700 -871 Descending Chicago Center
Wed 06:56:39 PM 42.8694 -90.3939 96° East 470 541 25,800 -823 Descending Chicago Center
Wed 06:57:41 PM 42.8519 -90.2208 98° East 466 536 25,000 -823 Descending Chicago Center
Wed 06:58:43 PM 42.8286 -90.0508 101° East 465 535 24,100 -484 Descending Chicago Center
Wed 06:59:45 PM 42.7811 -89.8794 111° Southeast 455 524 24,000 -48 Descending Chicago Center
Wed 07:00:47 PM 42.7286 -89.6961 111° Southeast 448 516 24,000 -532 Level Chicago Center
Wed 07:01:49 PM 42.6819 -89.5392 112° Southeast 448 516 22,900 -1,694 Descending Chicago Center
Wed 07:02:51 PM 42.6394 -89.3867 111° Southeast 436 502 20,500 -2,419 Descending Chicago Center
Wed 07:03:53 PM 42.5981 -89.2428 111° Southeast 416 479 17,900 -2,419 Descending Chicago Center
Wed 07:04:55 PM 42.5575 -89.1022 111° Southeast 403 464 15,500 -1,887 Descending Chicago Center
Wed 07:05:57 PM 42.5097 -88.9447 112° Southeast 392 451 14,000 -1,161 Descending Chicago Center
Wed 07:06:59 PM 42.4689 -88.8117 113° Southeast 385 443 13,100 -1,056 Descending Chicago Center
Wed 07:08:02 PM 42.4289 -88.6817 113° Southeast 379 436 11,800 -1,248 Descending Chicago Center
Wed 07:09:04 PM 42.3906 -88.5514 112° Southeast 375 432 10,500 -871 Descending Chicago Center
Wed 07:10:06 PM 42.3531 -88.4256 112° Southeast 366 421 10,000 -242 Descending Chicago Center
Wed 07:11:08 PM 42.2969 -88.3153 124° Southeast 357 411 10,000  Level Chicago Center
Wed 07:12:10 PM 42.2228 -88.1925 129° Southeast 353 406 10,000 48 Level Chicago Center
Wed 07:13:12 PM 42.1569 -88.1044 135° Southeast 332 382 10,100 -677 Climbing Chicago Center
Wed 07:14:14 PM 42.0978 -88.0317 138° Southeast 291 335 8,600 -1,630 Descending Chicago Center
Wed 07:14:44 PM 42.0833 -87.9667 107° East 298 343 7,600 -1,067 Descending Chicago TRACON
Wed 07:15:44 PM 42.0833 -87.8667 90° East 264 304 7,000 -702 Descending Chicago TRACON
Wed 07:16:18 PM 42.0908 -87.8286 75° East 270 311 6,500 -1,732 Descending Chicago Center
Wed 07:17:21 PM 42.0736 -87.7294 103° East 251 289 4,200 -1,824 Descending Chicago Center
Wed 07:18:23 PM 42.0269 -87.7519 200° South 210 242 2,700 -1,452 Descending Chicago Center

Login

Don't have an account? Register now (free) for customized features, flight alerts, and more!